Time;durP1;ratioP1;P1;durP2;ratioP2;P2;SDS_P1;SDS_P2;PMS_P1;PMS_P2;Temp;Humidity;BMP_temperature;BMP_pressure;BME280_temperature;BME280_humidity;BME280_pressure;Samples;Min_cycle;Max_cycle;Signal;HPM_P1;HPM_P2
2022/03/05 00:00:20;;;;;;;;;;;21.40;39.50;;;;;;5066595;28;19957;-56
2022/03/05 00:02:46;;;;;;;;;;;21.40;39.50;;;;;;5073009;28;19920;-57
2022/03/05 00:05:12;;;;;;;;;;;21.40;39.60;;;;;;5068115;28;20333;-56
2022/03/05 00:07:38;;;;;;;;;;;21.40;39.60;;;;;;5070068;28;19958;-55
2022/03/05 00:10:04;;;;;;;;;;;21.30;39.60;;;;;;5069242;28;19924;-56
2022/03/05 00:12:30;;;;;;;;;;;21.30;39.60;;;;;;5072911;28;19913;-55
2022/03/05 00:14:56;;;;;;;;;;;21.30;39.50;;;;;;5067745;28;19920;-56
2022/03/05 00:17:21;;;;;;;;;;;21.30;39.50;;;;;;5073546;28;20011;-56
2022/03/05 00:19:47;;;;;;;;;;;21.30;39.50;;;;;;5069288;28;19912;-56
2022/03/05 00:22:12;;;;;;;;;;;21.20;39.40;;;;;;5077557;28;19965;-57
2022/03/05 00:24:38;;;;;;;;;;;21.20;39.50;;;;;;5072921;28;19931;-55
2022/03/05 00:27:04;;;;;;;;;;;21.10;39.40;;;;;;5076672;28;19919;-56
2022/03/05 00:29:29;;;;;;;;;;;21.10;39.60;;;;;;5076655;28;19912;-55
2022/03/05 00:31:55;;;;;;;;;;;21.00;39.60;;;;;;5074160;28;19921;-55
2022/03/05 00:34:20;;;;;;;;;;;21.00;39.70;;;;;;5083239;28;19948;-56
2022/03/05 00:36:46;;;;;;;;;;;21.00;39.70;;;;;;5076999;28;19916;-56
2022/03/05 00:39:11;;;;;;;;;;;21.00;39.70;;;;;;5068143;28;20362;-55
2022/03/05 00:41:37;;;;;;;;;;;21.00;39.50;;;;;;5069872;28;20149;-55
2022/03/05 00:44:02;;;;;;;;;;;21.00;40.30;;;;;;5065062;28;19916;-56
2022/03/05 00:46:28;;;;;;;;;;;20.90;39.60;;;;;;5077774;28;19920;-55
2022/03/05 00:48:53;;;;;;;;;;;21.00;39.70;;;;;;5075586;28;19947;-55
2022/03/05 00:51:19;;;;;;;;;;;20.90;39.60;;;;;;5077643;28;20382;-55
2022/03/05 00:53:44;;;;;;;;;;;20.90;39.70;;;;;;5074579;28;19912;-55
2022/03/05 00:56:10;;;;;;;;;;;20.90;39.70;;;;;;5071767;28;19912;-55
2022/03/05 00:58:35;;;;;;;;;;;20.80;39.60;;;;;;5073452;28;19919;-55
2022/03/05 01:01:00;;;;;;;;;;;20.80;39.60;;;;;;5078775;28;20307;-56
2022/03/05 01:03:26;;;;;;;;;;;20.80;39.60;;;;;;5076228;28;19995;-56
2022/03/05 01:05:53;;;;;;;;;;;20.80;39.60;;;;;;5075428;28;19981;-56
2022/03/05 01:08:18;;;;;;;;;;;20.80;39.50;;;;;;5071778;28;19923;-56
2022/03/05 01:10:44;;;;;;;;;;;20.80;40.30;;;;;;5073087;28;19916;-56
2022/03/05 01:13:09;;;;;;;;;;;20.80;39.70;;;;;;5072424;28;20421;-56
2022/03/05 01:15:35;;;;;;;;;;;20.70;39.60;;;;;;5076833;28;19913;-56
2022/03/05 01:18:00;;;;;;;;;;;20.70;39.60;;;;;;5074164;28;19921;-55
2022/03/05 01:20:25;;;;;;;;;;;20.70;39.70;;;;;;5071772;28;19984;-56
2022/03/05 01:22:51;;;;;;;;;;;20.60;39.50;;;;;;5073211;28;19931;-56
2022/03/05 01:25:16;;;;;;;;;;;20.60;39.50;;;;;;5065558;28;19946;-56
2022/03/05 01:27:42;;;;;;;;;;;20.60;39.60;;;;;;5073103;28;20359;-55
2022/03/05 01:30:07;;;;;;;;;;;20.60;39.50;;;;;;5072181;28;20321;-55
2022/03/05 01:32:33;;;;;;;;;;;20.60;39.50;;;;;;5071820;28;20244;-56
2022/03/05 01:34:58;;;;;;;;;;;20.50;39.60;;;;;;5058403;28;19909;-55
2022/03/05 01:37:24;;;;;;;;;;;20.50;39.70;;;;;;5074388;28;20257;-55
2022/03/05 01:39:49;;;;;;;;;;;20.50;39.60;;;;;;5076242;28;19916;-56
2022/03/05 01:42:18;;;;;;;;;;;20.50;39.50;;;;;;5076953;28;19912;-56
2022/03/05 01:44:43;;;;;;;;;;;20.40;39.50;;;;;;5077856;28;19925;-56
2022/03/05 01:47:09;;;;;;;;;;;20.40;39.60;;;;;;5078091;28;19913;-56
2022/03/05 01:49:34;;;;;;;;;;;20.40;39.50;;;;;;5074981;28;19919;-55
2022/03/05 01:52:00;;;;;;;;;;;20.40;39.40;;;;;;5075131;28;20308;-56
2022/03/05 01:54:25;;;;;;;;;;;20.40;39.50;;;;;;5076514;28;19913;-56
2022/03/05 01:56:50;;;;;;;;;;;20.30;39.50;;;;;;5077657;28;19918;-56
2022/03/05 01:59:16;;;;;;;;;;;20.30;39.50;;;;;;5072810;28;19908;-55
2022/03/05 02:01:41;;;;;;;;;;;20.30;39.50;;;;;;5077151;28;19917;-55
2022/03/05 02:04:07;;;;;;;;;;;20.30;39.30;;;;;;5067860;28;19916;-56
2022/03/05 02:06:32;;;;;;;;;;;20.30;39.60;;;;;;5072478;28;19963;-57
2022/03/05 02:08:58;;;;;;;;;;;20.30;39.30;;;;;;5071980;28;19920;-55
2022/03/05 02:11:24;;;;;;;;;;;20.20;39.30;;;;;;5071130;28;20011;-56
2022/03/05 02:13:49;;;;;;;;;;;20.20;39.40;;;;;;5075700;28;19923;-54
2022/03/05 02:16:15;;;;;;;;;;;20.20;39.40;;;;;;5073165;28;19920;-56
2022/03/05 02:18:44;;;;;;;;;;;20.20;39.60;;;;;;5077868;28;20018;-56
2022/03/05 02:21:09;;;;;;;;;;;20.30;39.60;;;;;;5070756;28;19927;-56
2022/03/05 02:23:34;;;;;;;;;;;20.40;39.50;;;;;;5076814;28;20263;-55
2022/03/05 02:26:02;;;;;;;;;;;20.60;39.50;;;;;;5079435;28;20005;-55
2022/03/05 02:28:28;;;;;;;;;;;20.70;39.30;;;;;;5076208;28;20692;-56
2022/03/05 02:30:54;;;;;;;;;;;21.00;39.00;;;;;;5072526;28;19958;-56
2022/03/05 02:33:19;;;;;;;;;;;21.30;38.60;;;;;;5079152;28;20386;-55
2022/03/05 02:35:44;;;;;;;;;;;21.60;38.10;;;;;;5078088;28;19912;-56
2022/03/05 02:38:13;;;;;;;;;;;21.90;37.50;;;;;;5071098;28;19920;-56
2022/03/05 02:40:39;;;;;;;;;;;22.20;37.10;;;;;;5072691;28;19916;-55
2022/03/05 02:43:05;;;;;;;;;;;22.40;36.60;;;;;;5067432;28;20031;-56
2022/03/05 02:45:30;;;;;;;;;;;22.60;36.30;;;;;;5081227;28;19916;-56
2022/03/05 02:47:56;;;;;;;;;;;22.80;36.00;;;;;;5077939;28;19920;-56
2022/03/05 02:50:21;;;;;;;;;;;22.90;35.90;;;;;;5075917;28;19912;-56
2022/03/05 02:52:47;;;;;;;;;;;23.00;35.90;;;;;;5073217;28;19913;-56
2022/03/05 02:55:12;;;;;;;;;;;23.10;35.80;;;;;;5072095;28;19913;-56
2022/03/05 02:57:38;;;;;;;;;;;23.10;35.80;;;;;;5073760;28;19955;-56
2022/03/05 03:00:04;;;;;;;;;;;23.00;35.90;;;;;;5069817;28;19913;-55
2022/03/05 03:02:29;;;;;;;;;;;23.00;35.90;;;;;;5071767;28;19928;-55
2022/03/05 03:04:55;;;;;;;;;;;22.90;36.50;;;;;;5070283;28;19920;-56
2022/03/05 03:07:20;;;;;;;;;;;22.80;35.80;;;;;;5070747;28;19945;-56
2022/03/05 03:09:46;;;;;;;;;;;22.80;35.80;;;;;;5073545;28;19923;-56
2022/03/05 03:12:11;;;;;;;;;;;22.70;35.70;;;;;;5072230;28;19916;-56
2022/03/05 03:14:37;;;;;;;;;;;22.60;35.90;;;;;;5084326;28;19912;-56
2022/03/05 03:17:02;;;;;;;;;;;22.50;36.10;;;;;;5080545;28;20292;-56
2022/03/05 03:19:28;;;;;;;;;;;22.40;36.40;;;;;;5069220;28;19920;-56
2022/03/05 03:21:53;;;;;;;;;;;22.20;36.50;;;;;;5068805;28;19917;-56
2022/03/05 03:24:19;;;;;;;;;;;22.10;36.70;;;;;;5073562;28;19967;-56
2022/03/05 03:26:45;;;;;;;;;;;22.10;36.80;;;;;;5073266;28;19964;-56
2022/03/05 03:29:11;;;;;;;;;;;22.00;36.90;;;;;;5074903;28;19999;-56
2022/03/05 03:31:37;;;;;;;;;;;22.00;37.00;;;;;;5077982;28;19913;-56
2022/03/05 03:34:02;;;;;;;;;;;22.10;37.10;;;;;;5078775;28;19916;-55
2022/03/05 03:36:28;;;;;;;;;;;22.10;37.00;;;;;;5072439;28;19924;-55
2022/03/05 03:38:53;;;;;;;;;;;22.10;37.00;;;;;;5072390;28;20707;-56
2022/03/05 03:41:19;;;;;;;;;;;22.20;36.90;;;;;;5070090;28;20753;-54
2022/03/05 03:43:44;;;;;;;;;;;22.20;36.80;;;;;;5070693;28;20331;-56
2022/03/05 03:46:10;;;;;;;;;;;22.20;36.70;;;;;;5079567;28;19918;-56
2022/03/05 03:48:35;;;;;;;;;;;22.10;36.70;;;;;;5074245;28;20003;-55
2022/03/05 03:51:01;;;;;;;;;;;22.10;36.60;;;;;;5073438;28;19912;-55
2022/03/05 03:53:26;;;;;;;;;;;22.10;36.60;;;;;;5069324;28;20307;-55
2022/03/05 03:55:52;;;;;;;;;;;22.10;36.60;;;;;;5067712;28;19920;-55
2022/03/05 03:58:17;;;;;;;;;;;22.10;36.50;;;;;;5069370;28;19916;-55
2022/03/05 04:00:43;;;;;;;;;;;22.10;36.50;;;;;;5072124;28;19912;-56
2022/03/05 04:03:08;;;;;;;;;;;22.10;36.40;;;;;;5073757;28;20580;-55
2022/03/05 04:05:33;;;;;;;;;;;22.10;36.40;;;;;;5071278;28;19966;-55
2022/03/05 04:10:43;;;;;;;;;;;22.10;36.40;;;;;;5073257;28;19920;-55
2022/03/05 04:13:09;;;;;;;;;;;22.10;36.40;;;;;;5067918;28;19917;-56
2022/03/05 04:15:34;;;;;;;;;;;22.20;36.50;;;;;;5071484;28;19917;-55
2022/03/05 04:17:59;;;;;;;;;;;22.20;36.40;;;;;;5077683;28;19916;-56
2022/03/05 04:20:25;;;;;;;;;;;22.20;36.40;;;;;;5073399;28;19920;-56
2022/03/05 04:22:50;;;;;;;;;;;22.20;36.30;;;;;;5064272;28;19923;-55
2022/03/05 04:25:16;;;;;;;;;;;22.20;36.30;;;;;;5076464;28;19920;-56
2022/03/05 04:27:41;;;;;;;;;;;22.20;36.30;;;;;;5071411;28;19912;-56
2022/03/05 04:30:07;;;;;;;;;;;22.20;36.30;;;;;;5075780;28;19912;-56
2022/03/05 04:32:33;;;;;;;;;;;22.20;36.30;;;;;;5075645;28;20369;-56
2022/03/05 04:34:58;;;;;;;;;;;22.20;36.20;;;;;;5073685;28;19927;-55
2022/03/05 04:37:24;;;;;;;;;;;22.20;36.20;;;;;;5076161;28;20273;-55
2022/03/05 04:39:49;;;;;;;;;;;22.10;36.20;;;;;;5078888;28;19917;-55
2022/03/05 04:42:14;;;;;;;;;;;22.10;36.20;;;;;;5072088;28;19957;-56
2022/03/05 04:44:40;;;;;;;;;;;22.10;36.20;;;;;;5064314;28;20421;-56
2022/03/05 04:47:05;;;;;;;;;;;22.10;36.20;;;;;;5069762;28;20351;-56
2022/03/05 04:49:31;;;;;;;;;;;22.10;36.20;;;;;;5077311;28;19923;-55
2022/03/05 04:51:56;;;;;;;;;;;22.10;36.20;;;;;;5074848;28;19955;-55
2022/03/05 04:54:24;;;;;;;;;;;22.10;36.20;;;;;;5082367;28;19965;-55
2022/03/05 04:56:49;;;;;;;;;;;22.10;36.20;;;;;;5072413;28;19924;-56
2022/03/05 04:59:14;;;;;;;;;;;22.10;36.30;;;;;;5071460;28;19921;-55
2022/03/05 05:01:40;;;;;;;;;;;22.10;36.20;;;;;;5074454;28;19912;-55
2022/03/05 05:04:05;;;;;;;;;;;22.10;36.30;;;;;;5073977;28;20037;-55
2022/03/05 05:06:31;;;;;;;;;;;22.00;36.30;;;;;;5067486;28;19924;-56
2022/03/05 05:08:56;;;;;;;;;;;22.00;36.50;;;;;;5073518;28;19919;-56
2022/03/05 05:11:22;;;;;;;;;;;22.00;36.50;;;;;;5071185;28;19958;-55
2022/03/05 05:13:47;;;;;;;;;;;22.00;36.40;;;;;;5078536;28;20364;-56
2022/03/05 05:16:13;;;;;;;;;;;22.00;36.40;;;;;;5078159;28;19983;-56
2022/03/05 05:18:38;;;;;;;;;;;22.00;36.40;;;;;;5074375;28;19971;-55
2022/03/05 05:21:04;;;;;;;;;;;22.00;36.40;;;;;;5079846;28;20345;-55
2022/03/05 05:23:29;;;;;;;;;;;22.00;36.30;;;;;;5072414;28;20376;-55
2022/03/05 05:25:55;;;;;;;;;;;22.00;36.10;;;;;;5081356;28;20376;-56
2022/03/05 05:28:20;;;;;;;;;;;22.10;36.10;;;;;;5073853;28;19923;-56
2022/03/05 05:30:46;;;;;;;;;;;22.10;36.00;;;;;;5076754;28;19913;-56
2022/03/05 05:33:11;;;;;;;;;;;22.10;35.90;;;;;;5070632;28;20583;-56
2022/03/05 05:35:37;;;;;;;;;;;22.20;36.00;;;;;;5070423;28;19948;-56
2022/03/05 05:38:02;;;;;;;;;;;22.20;35.80;;;;;;5082680;28;19916;-55
2022/03/05 05:40:28;;;;;;;;;;;22.20;35.80;;;;;;5084005;28;19924;-55
2022/03/05 05:42:53;;;;;;;;;;;22.20;35.70;;;;;;5072519;28;19916;-55
2022/03/05 05:45:19;;;;;;;;;;;22.20;35.70;;;;;;5075353;28;19959;-55
2022/03/05 05:47:44;;;;;;;;;;;22.10;35.70;;;;;;5079319;28;19916;-55
2022/03/05 05:50:10;;;;;;;;;;;22.10;35.90;;;;;;5079520;28;19927;-55
2022/03/05 05:52:35;;;;;;;;;;;22.00;36.50;;;;;;5077690;28;19923;-56
2022/03/05 05:55:01;;;;;;;;;;;22.00;36.00;;;;;;5074191;28;19947;-56
2022/03/05 05:57:26;;;;;;;;;;;22.00;36.10;;;;;;5079438;28;19912;-56
2022/03/05 05:59:51;;;;;;;;;;;21.90;36.10;;;;;;5084026;28;19924;-56
2022/03/05 06:02:17;;;;;;;;;;;21.90;36.10;;;;;;5078022;28;19956;-55
2022/03/05 06:04:42;;;;;;;;;;;21.90;36.10;;;;;;5069621;28;19920;-56
2022/03/05 06:07:08;;;;;;;;;;;21.90;36.20;;;;;;5073584;28;19921;-55
2022/03/05 06:09:33;;;;;;;;;;;21.90;36.10;;;;;;5074698;28;19916;-55
2022/03/05 06:11:59;;;;;;;;;;;21.90;36.10;;;;;;5067296;28;19917;-56
2022/03/05 06:14:24;;;;;;;;;;;22.00;36.10;;;;;;5072888;28;19923;-55
2022/03/05 06:16:50;;;;;;;;;;;22.00;35.90;;;;;;5075127;28;20001;-55
2022/03/05 06:19:15;;;;;;;;;;;22.00;35.80;;;;;;5065665;28;19979;-56
2022/03/05 06:21:40;;;;;;;;;;;22.10;35.90;;;;;;5071686;28;19916;-55
2022/03/05 06:24:07;;;;;;;;;;;22.00;35.80;;;;;;5075539;28;19925;-55
2022/03/05 06:26:33;;;;;;;;;;;22.10;35.70;;;;;;5076936;28;19921;-56
2022/03/05 06:28:58;;;;;;;;;;;22.10;35.50;;;;;;5078934;28;20003;-55
2022/03/05 06:31:24;;;;;;;;;;;22.10;35.40;;;;;;5074368;28;20006;-55
2022/03/05 06:33:49;;;;;;;;;;;22.10;35.50;;;;;;5076625;28;19916;-56
2022/03/05 06:36:15;;;;;;;;;;;22.00;35.40;;;;;;5073552;28;19920;-56
2022/03/05 06:38:40;;;;;;;;;;;22.00;35.60;;;;;;5071426;28;19923;-55
2022/03/05 06:41:06;;;;;;;;;;;21.90;35.80;;;;;;5072859;28;19913;-55
2022/03/05 06:43:31;;;;;;;;;;;21.80;35.90;;;;;;5074061;28;19945;-56
2022/03/05 06:45:57;;;;;;;;;;;21.70;36.00;;;;;;5069156;28;21230;-56
2022/03/05 06:48:23;;;;;;;;;;;21.70;36.00;;;;;;5074304;28;19919;-56
2022/03/05 06:50:48;;;;;;;;;;;21.70;36.10;;;;;;5074084;28;19928;-56
2022/03/05 06:53:14;;;;;;;;;;;21.70;36.10;;;;;;5077598;28;19984;-56
2022/03/05 06:55:39;;;;;;;;;;;21.70;36.00;;;;;;5072881;28;19974;-55
2022/03/05 06:58:04;;;;;;;;;;;21.80;36.00;;;;;;5083837;28;19939;-55
2022/03/05 07:00:30;;;;;;;;;;;21.80;36.00;;;;;;5077052;28;19912;-56
2022/03/05 07:02:55;;;;;;;;;;;21.90;35.90;;;;;;5077812;28;19940;-55
2022/03/05 07:05:21;;;;;;;;;;;21.90;35.80;;;;;;5074420;28;19966;-55
2022/03/05 07:07:46;;;;;;;;;;;22.00;35.70;;;;;;5078602;28;19912;-56
2022/03/05 07:10:12;;;;;;;;;;;22.00;35.60;;;;;;5077232;28;19920;-55
2022/03/05 07:12:37;;;;;;;;;;;22.00;35.50;;;;;;5070494;28;19946;-56
2022/03/05 07:15:03;;;;;;;;;;;22.00;35.50;;;;;;5081358;28;20014;-56
2022/03/05 07:17:29;;;;;;;;;;;22.00;35.40;;;;;;5075891;28;19920;-56
2022/03/05 07:19:55;;;;;;;;;;;22.00;35.50;;;;;;5078257;28;19964;-56
2022/03/05 07:22:21;;;;;;;;;;;22.00;35.50;;;;;;5068918;28;19917;-55
2022/03/05 07:24:46;;;;;;;;;;;22.00;35.40;;;;;;5075223;28;20377;-55
2022/03/05 07:27:11;;;;;;;;;;;21.90;35.50;;;;;;5070654;28;19920;-55
2022/03/05 07:29:37;;;;;;;;;;;21.90;35.40;;;;;;5078103;28;19952;-54
2022/03/05 07:32:05;;;;;;;;;;;21.80;35.70;;;;;;5074960;28;19957;-54
2022/03/05 07:34:31;;;;;;;;;;;21.80;35.90;;;;;;5067117;28;19919;-55
2022/03/05 07:36:57;;;;;;;;;;;21.70;35.90;;;;;;5073058;28;19912;-55
2022/03/05 07:39:23;;;;;;;;;;;21.70;35.90;;;;;;5076134;28;19917;-55
2022/03/05 07:41:48;;;;;;;;;;;21.80;36.00;;;;;;5071050;28;20292;-55
2022/03/05 07:44:14;;;;;;;;;;;21.80;35.80;;;;;;5081491;28;20019;-55
2022/03/05 07:46:39;;;;;;;;;;;21.80;35.80;;;;;;5073898;28;19917;-55
2022/03/05 07:49:05;;;;;;;;;;;21.90;35.80;;;;;;5065895;28;20007;-55
2022/03/05 07:51:30;;;;;;;;;;;21.90;35.60;;;;;;5072743;28;20057;-56
2022/03/05 07:53:56;;;;;;;;;;;21.90;35.40;;;;;;5073134;28;19916;-55
2022/03/05 07:56:21;;;;;;;;;;;22.00;35.40;;;;;;5075300;28;20320;-55
2022/03/05 07:58:47;;;;;;;;;;;22.00;35.30;;;;;;5068446;28;20363;-55
2022/03/05 08:01:12;;;;;;;;;;;22.00;35.10;;;;;;5071179;28;19920;-55
2022/03/05 08:03:38;;;;;;;;;;;22.00;35.10;;;;;;5071651;28;19943;-56
2022/03/05 08:06:03;;;;;;;;;;;22.10;35.20;;;;;;5073472;28;19920;-55
2022/03/05 08:08:29;;;;;;;;;;;22.10;35.20;;;;;;5072990;28;20103;-56
2022/03/05 08:10:54;;;;;;;;;;;22.10;35.20;;;;;;5076815;28;19979;-56
2022/03/05 08:13:20;;;;;;;;;;;22.10;35.20;;;;;;5078950;28;19989;-56
2022/03/05 08:15:45;;;;;;;;;;;22.00;35.10;;;;;;5078600;28;20325;-55
2022/03/05 08:18:11;;;;;;;;;;;22.00;35.80;;;;;;5066652;28;19916;-56
2022/03/05 08:20:36;;;;;;;;;;;22.00;35.20;;;;;;5070813;28;19978;-55
2022/03/05 08:23:02;;;;;;;;;;;21.90;35.40;;;;;;5072880;28;19916;-56
2022/03/05 08:25:27;;;;;;;;;;;21.90;35.60;;;;;;5073503;28;19916;-55
2022/03/05 08:27:54;;;;;;;;;;;21.80;35.60;;;;;;5073501;28;20409;-55
2022/03/05 08:30:20;;;;;;;;;;;21.80;35.60;;;;;;5074150;28;20035;-56
2022/03/05 08:32:45;;;;;;;;;;;21.80;35.70;;;;;;5078881;28;19913;-55
2022/03/05 08:35:11;;;;;;;;;;;21.70;35.60;;;;;;5072001;28;20003;-55
2022/03/05 08:37:37;;;;;;;;;;;21.80;35.70;;;;;;5070998;28;19921;-56
2022/03/05 08:40:03;;;;;;;;;;;21.80;35.60;;;;;;5069157;28;19913;-56
2022/03/05 08:42:29;;;;;;;;;;;21.80;35.60;;;;;;5070894;28;20095;-56
2022/03/05 08:44:54;;;;;;;;;;;21.80;35.50;;;;;;5067645;28;20441;-56
2022/03/05 08:47:20;;;;;;;;;;;21.90;35.40;;;;;;5062891;28;19935;-56
2022/03/05 08:49:45;;;;;;;;;;;21.90;35.30;;;;;;5074802;28;19912;-56
2022/03/05 08:52:11;;;;;;;;;;;21.90;35.30;;;;;;5072888;28;20007;-54
2022/03/05 08:54:36;;;;;;;;;;;22.00;35.20;;;;;;5075004;28;19909;-56
2022/03/05 08:57:02;;;;;;;;;;;22.00;35.10;;;;;;5073190;28;19913;-56
2022/03/05 08:59:28;;;;;;;;;;;22.00;35.10;;;;;;5069243;28;19913;-56
2022/03/05 09:01:53;;;;;;;;;;;22.00;35.30;;;;;;5067118;28;19950;-56
2022/03/05 09:04:19;;;;;;;;;;;22.10;35.40;;;;;;5074712;28;19931;-56
2022/03/05 09:06:44;;;;;;;;;;;22.20;35.60;;;;;;5073882;28;20268;-56
2022/03/05 09:09:10;;;;;;;;;;;22.40;35.60;;;;;;5062040;28;19908;-55
2022/03/05 09:11:37;;;;;;;;;;;22.50;35.50;;;;;;5068385;28;19920;-56
2022/03/05 09:14:06;;;;;;;;;;;22.70;35.30;;;;;;5072107;28;20008;-56
2022/03/05 09:16:32;;;;;;;;;;;22.70;35.20;;;;;;5072538;28;20284;-56
2022/03/05 09:18:57;;;;;;;;;;;22.60;35.20;;;;;;5058497;28;19909;-56
2022/03/05 09:21:23;;;;;;;;;;;22.60;35.30;;;;;;5064872;28;19909;-55
2022/03/05 09:23:48;;;;;;;;;;;22.70;35.40;;;;;;5064340;28;19975;-55
2022/03/05 09:26:14;;;;;;;;;;;22.70;35.20;;;;;;5073161;28;19912;-55
2022/03/05 09:28:40;;;;;;;;;;;22.80;35.20;;;;;;5072810;28;19916;-56
2022/03/05 09:31:06;;;;;;;;;;;22.80;35.10;;;;;;5073939;28;19923;-56
2022/03/05 09:33:31;;;;;;;;;;;22.80;35.00;;;;;;5071213;28;20287;-56
2022/03/05 09:35:57;;;;;;;;;;;22.90;35.00;;;;;;5069606;28;19954;-55
2022/03/05 09:38:22;;;;;;;;;;;22.90;35.00;;;;;;5073671;28;19908;-55
2022/03/05 09:40:48;;;;;;;;;;;22.90;34.90;;;;;;5069689;28;19920;-56
2022/03/05 09:43:13;;;;;;;;;;;23.00;34.90;;;;;;5073575;28;19916;-56
2022/03/05 09:45:38;;;;;;;;;;;23.00;35.00;;;;;;5069462;28;19924;-55
2022/03/05 09:48:04;;;;;;;;;;;23.00;34.90;;;;;;5068318;28;19920;-56
2022/03/05 09:50:32;;;;;;;;;;;23.00;34.90;;;;;;5069173;28;20367;-56
2022/03/05 09:52:58;;;;;;;;;;;23.00;34.90;;;;;;5068176;28;19944;-55
2022/03/05 09:55:23;;;;;;;;;;;23.00;35.00;;;;;;5068457;28;19959;-55
2022/03/05 09:57:49;;;;;;;;;;;23.00;35.00;;;;;;5065275;28;20288;-56
2022/03/05 10:00:14;;;;;;;;;;;23.00;35.00;;;;;;5069326;28;19923;-56
2022/03/05 10:02:40;;;;;;;;;;;23.00;35.10;;;;;;5068270;28;19916;-57
2022/03/05 10:05:15;;;;;;;;;;;22.90;35.00;;;;;;5072005;28;19920;-56
2022/03/05 10:08:10;;;;;;;;;;;22.90;35.20;;;;;;5069998;28;19944;-56
2022/03/05 10:10:40;;;;;;;;;;;22.80;35.10;;;;;;5070583;28;19912;-56
2022/03/05 10:13:14;;;;;;;;;;;22.80;35.30;;;;;;5077169;28;19923;-56
2022/03/05 10:15:39;;;;;;;;;;;22.80;35.40;;;;;;5074886;28;19934;-56
2022/03/05 10:18:05;;;;;;;;;;;22.70;35.50;;;;;;5074044;28;19980;-56
2022/03/05 10:20:31;;;;;;;;;;;22.70;35.70;;;;;;5075190;28;19912;-56
2022/03/05 10:22:57;;;;;;;;;;;22.70;35.70;;;;;;5074784;28;19916;-56
2022/03/05 10:25:29;;;;;;;;;;;22.70;35.70;;;;;;5069180;28;19951;-56
2022/03/05 10:27:59;;;;;;;;;;;22.70;35.70;;;;;;5070591;28;19916;-56
2022/03/05 10:30:31;;;;;;;;;;;22.70;35.70;;;;;;5074056;28;19962;-56
2022/03/05 10:32:57;;;;;;;;;;;22.70;35.80;;;;;;5073013;28;19979;-57
2022/03/05 10:35:22;;;;;;;;;;;22.70;36.00;;;;;;5073040;28;20380;-56
2022/03/05 10:37:53;;;;;;;;;;;22.70;36.00;;;;;;5070663;28;19931;-57
2022/03/05 10:40:26;;;;;;;;;;;22.70;36.10;;;;;;5068010;28;20288;-55
2022/03/05 10:42:51;;;;;;;;;;;22.70;36.10;;;;;;5074142;28;20054;-56
2022/03/05 10:45:18;;;;;;;;;;;22.80;36.20;;;;;;5072121;28;20003;-56
2022/03/05 10:47:46;;;;;;;;;;;22.80;36.30;;;;;;5067089;28;19918;-56
2022/03/05 10:50:24;;;;;;;;;;;22.80;36.90;;;;;;5070017;28;19924;-56
2022/03/05 10:52:50;;;;;;;;;;;22.80;36.30;;;;;;5064729;28;19917;-55
2022/03/05 10:55:16;;;;;;;;;;;22.90;36.50;;;;;;5068202;28;19935;-55
2022/03/05 10:58:02;;;;;;;;;;;22.90;36.50;;;;;;5073903;28;19912;-55
2022/03/05 11:00:28;;;;;;;;;;;22.90;36.60;;;;;;5072380;28;20007;-56
2022/03/05 11:02:54;;;;;;;;;;;22.90;36.70;;;;;;5069397;28;19929;-56
2022/03/05 11:05:20;;;;;;;;;;;22.90;36.80;;;;;;5069039;28;19997;-56
2022/03/05 11:07:49;;;;;;;;;;;22.80;36.90;;;;;;5074423;28;20340;-56
2022/03/05 11:10:18;;;;;;;;;;;22.80;37.10;;;;;;5074654;28;19916;-55
2022/03/05 11:12:51;;;;;;;;;;;22.80;37.20;;;;;;5074004;28;19913;-55
2022/03/05 11:15:17;;;;;;;;;;;22.70;37.40;;;;;;5073491;28;20360;-56
2022/03/05 11:17:42;;;;;;;;;;;22.70;37.60;;;;;;5074028;28;19926;-55
2022/03/05 11:20:08;;;;;;;;;;;22.70;37.80;;;;;;5070635;28;20288;-55
2022/03/05 11:22:33;;;;;;;;;;;22.70;38.10;;;;;;5075219;28;19912;-56
2022/03/05 11:24:59;;;;;;;;;;;22.60;38.20;;;;;;5075271;28;20365;-56
2022/03/05 11:27:24;;;;;;;;;;;22.60;38.40;;;;;;5073392;28;19978;-55
2022/03/05 11:29:54;;;;;;;;;;;22.50;39.10;;;;;;5073944;28;19916;-56
2022/03/05 11:32:19;;;;;;;;;;;22.50;38.70;;;;;;5074703;28;19928;-57
2022/03/05 11:34:48;;;;;;;;;;;22.60;38.80;;;;;;5074588;28;19920;-56
2022/03/05 11:37:23;;;;;;;;;;;22.60;38.80;;;;;;5075692;28;19916;-56
2022/03/05 11:39:49;;;;;;;;;;;22.70;38.70;;;;;;5073936;28;19923;-56
2022/03/05 11:42:35;;;;;;;;;;;22.90;38.80;;;;;;5073572;28;19946;-57
2022/03/05 11:45:01;;;;;;;;;;;23.00;38.80;;;;;;5070569;28;19920;-55
2022/03/05 11:47:27;;;;;;;;;;;23.20;39.00;;;;;;5072031;28;19912;-56
2022/03/05 11:49:56;;;;;;;;;;;23.30;37.90;;;;;;5072951;28;19915;-55
2022/03/05 11:52:22;;;;;;;;;;;23.40;37.70;;;;;;5064886;28;19916;-54
2022/03/05 11:55:11;;;;;;;;;;;23.50;37.40;;;;;;5069541;28;19908;-57
2022/03/05 11:57:37;;;;;;;;;;;23.50;37.40;;;;;;5067789;28;19908;-56
2022/03/05 12:00:03;;;;;;;;;;;23.50;37.60;;;;;;5071960;28;19920;-57
2022/03/05 12:02:40;;;;;;;;;;;23.40;37.60;;;;;;5073793;28;19916;-56
2022/03/05 12:05:05;;;;;;;;;;;23.40;37.70;;;;;;5072582;28;19927;-55
2022/03/05 12:07:38;;;;;;;;;;;23.30;37.80;;;;;;5073910;28;19920;-56
2022/03/05 12:10:10;;;;;;;;;;;23.30;38.00;;;;;;5071053;28;19913;-55
2022/03/05 12:12:55;;;;;;;;;;;23.30;38.10;;;;;;5071006;28;20379;-55
2022/03/05 12:15:29;;;;;;;;;;;23.30;38.20;;;;;;5072716;28;19916;-56
2022/03/05 12:17:54;;;;;;;;;;;23.30;38.40;;;;;;5069685;28;19923;-56
2022/03/05 12:20:21;;;;;;;;;;;23.20;38.50;;;;;;5071497;28;19912;-55
2022/03/05 12:22:47;;;;;;;;;;;23.10;38.30;;;;;;5070517;28;19908;-55
2022/03/05 12:25:13;;;;;;;;;;;23.10;38.10;;;;;;5071784;28;19989;-55
2022/03/05 12:27:38;;;;;;;;;;;23.00;37.90;;;;;;5071203;28;20412;-55
2022/03/05 12:30:04;;;;;;;;;;;23.00;37.90;;;;;;5070804;28;19919;-55
2022/03/05 12:32:30;;;;;;;;;;;23.00;37.90;;;;;;5072391;28;19970;-56
2022/03/05 12:35:05;;;;;;;;;;;23.00;37.80;;;;;;5062458;28;19909;-55
2022/03/05 12:37:31;;;;;;;;;;;23.10;37.60;;;;;;5061880;28;19932;-56
2022/03/05 12:39:56;;;;;;;;;;;23.20;37.20;;;;;;5070353;28;20334;-56
2022/03/05 12:42:22;;;;;;;;;;;23.30;36.90;;;;;;5072146;28;19908;-55
2022/03/05 12:44:47;;;;;;;;;;;23.40;36.60;;;;;;5071274;28;19916;-55
2022/03/05 12:47:13;;;;;;;;;;;23.50;36.40;;;;;;5061154;28;19918;-56
2022/03/05 12:49:38;;;;;;;;;;;23.60;36.40;;;;;;5066113;28;19919;-55
2022/03/05 12:52:05;;;;;;;;;;;23.60;36.40;;;;;;5069963;28;20551;-54
2022/03/05 12:54:30;;;;;;;;;;;23.60;36.70;;;;;;5070241;28;20380;-55
2022/03/05 12:56:56;;;;;;;;;;;23.50;36.70;;;;;;5071676;28;19947;-55
2022/03/05 12:59:22;;;;;;;;;;;23.50;36.80;;;;;;5071625;28;19908;-55
2022/03/05 13:01:48;;;;;;;;;;;23.50;37.00;;;;;;5064386;28;20000;-55
2022/03/05 13:04:14;;;;;;;;;;;23.50;37.00;;;;;;5066208;28;19920;-55
2022/03/05 13:06:39;;;;;;;;;;;23.50;37.10;;;;;;5061309;28;20380;-57
2022/03/05 13:09:04;;;;;;;;;;;23.40;37.10;;;;;;5058328;28;19992;-54
2022/03/05 13:11:30;;;;;;;;;;;23.40;37.10;;;;;;5060299;28;19912;-55
2022/03/05 13:13:56;;;;;;;;;;;23.40;37.30;;;;;;5060117;28;19923;-55
2022/03/05 13:16:22;;;;;;;;;;;23.30;37.20;;;;;;5058448;28;20405;-56
2022/03/05 13:19:09;;;;;;;;;;;23.30;37.30;;;;;;5059666;28;20036;-54
2022/03/05 13:21:46;;;;;;;;;;;23.20;37.30;;;;;;5061589;28;19940;-56
2022/03/05 13:24:15;;;;;;;;;;;23.20;37.40;;;;;;5057902;28;20269;-55
2022/03/05 13:26:43;;;;;;;;;;;23.20;37.40;;;;;;5060908;28;19913;-56
2022/03/05 13:29:08;;;;;;;;;;;23.20;37.40;;;;;;5061206;28;22989;-55
2022/03/05 13:31:34;;;;;;;;;;;23.30;37.40;;;;;;5060470;28;19923;-56
2022/03/05 13:33:59;;;;;;;;;;;23.30;37.20;;;;;;5060414;28;19921;-55
2022/03/05 13:36:29;;;;;;;;;;;23.40;36.90;;;;;;5061536;28;19917;-55
2022/03/05 13:38:57;;;;;;;;;;;23.50;36.40;;;;;;5065179;28;19916;-55
2022/03/05 13:41:26;;;;;;;;;;;23.60;36.20;;;;;;5062175;28;19917;-55
2022/03/05 13:43:51;;;;;;;;;;;23.70;35.90;;;;;;5064246;28;19917;-55
2022/03/05 13:46:18;;;;;;;;;;;23.80;35.80;;;;;;5063766;28;19920;-55
2022/03/05 13:48:50;;;;;;;;;;;23.80;35.90;;;;;;5062919;28;20765;-53
2022/03/05 13:51:19;;;;;;;;;;;23.80;36.10;;;;;;5060870;28;20280;-54
2022/03/05 13:53:45;;;;;;;;;;;23.80;36.20;;;;;;5065275;28;19920;-56
2022/03/05 13:56:10;;;;;;;;;;;23.70;36.40;;;;;;5064118;28;20641;-54
2022/03/05 13:58:38;;;;;;;;;;;23.70;36.50;;;;;;5060373;28;20003;-56
2022/03/05 14:01:12;;;;;;;;;;;23.60;36.40;;;;;;5063548;28;19912;-55
2022/03/05 14:03:38;;;;;;;;;;;23.60;36.40;;;;;;5063513;28;19970;-55
2022/03/05 14:06:13;;;;;;;;;;;23.50;36.70;;;;;;5062178;28;19920;-55
2022/03/05 14:08:47;;;;;;;;;;;23.40;36.70;;;;;;5061890;28;20319;-53
2022/03/05 14:11:13;;;;;;;;;;;23.30;36.90;;;;;;5064852;28;20330;-54
2022/03/05 14:13:46;;;;;;;;;;;23.30;37.10;;;;;;5061833;28;19927;-55